sensor_id;sensor_type;location;lat;lon;timestamp;P1;durP1;ratioP1;P2;durP2;ratioP2
53411;SDS011;39307;52.870;13.660;2023-04-24T00:01:51;10.48;;;7.97;;
53411;SDS011;39307;52.870;13.660;2023-04-24T00:04:17;12.00;;;7.68;;
53411;SDS011;39307;52.870;13.660;2023-04-24T00:06:44;8.63;;;7.43;;
53411;SDS011;39307;52.870;13.660;2023-04-24T00:09:10;9.90;;;7.28;;
53411;SDS011;39307;52.870;13.660;2023-04-24T00:11:36;10.48;;;7.57;;
53411;SDS011;39307;52.870;13.660;2023-04-24T00:14:02;10.77;;;7.78;;
53411;SDS011;39307;52.870;13.660;2023-04-24T00:16:28;9.87;;;7.70;;
53411;SDS011;39307;52.870;13.660;2023-04-24T00:18:55;10.10;;;7.65;;
53411;SDS011;39307;52.870;13.660;2023-04-24T00:21:21;10.60;;;7.97;;
53411;SDS011;39307;52.870;13.660;2023-04-24T00:23:47;10.45;;;7.57;;
53411;SDS011;39307;52.870;13.660;2023-04-24T00:26:13;9.82;;;7.38;;
53411;SDS011;39307;52.870;13.660;2023-04-24T00:28:40;10.13;;;7.95;;
53411;SDS011;39307;52.870;13.660;2023-04-24T00:31:06;10.90;;;8.43;;
53411;SDS011;39307;52.870;13.660;2023-04-24T00:33:32;9.80;;;7.57;;
53411;SDS011;39307;52.870;13.660;2023-04-24T00:35:58;9.87;;;8.33;;
53411;SDS011;39307;52.870;13.660;2023-04-24T00:38:24;10.20;;;7.70;;
53411;SDS011;39307;52.870;13.660;2023-04-24T00:40:51;10.38;;;7.82;;
53411;SDS011;39307;52.870;13.660;2023-04-24T00:43:17;10.77;;;8.18;;
53411;SDS011;39307;52.870;13.660;2023-04-24T00:45:43;10.65;;;8.15;;
53411;SDS011;39307;52.870;13.660;2023-04-24T00:48:09;14.57;;;9.02;;
53411;SDS011;39307;52.870;13.660;2023-04-24T00:50:37;11.27;;;8.50;;
53411;SDS011;39307;52.870;13.660;2023-04-24T00:53:04;10.20;;;8.23;;
53411;SDS011;39307;52.870;13.660;2023-04-24T00:55:30;11.02;;;8.40;;
53411;SDS011;39307;52.870;13.660;2023-04-24T00:57:56;10.70;;;8.55;;
53411;SDS011;39307;52.870;13.660;2023-04-24T01:00:22;12.03;;;9.13;;
53411;SDS011;39307;52.870;13.660;2023-04-24T01:02:49;10.73;;;8.20;;
53411;SDS011;39307;52.870;13.660;2023-04-24T01:05:16;9.82;;;8.48;;
53411;SDS011;39307;52.870;13.660;2023-04-24T01:07:43;10.20;;;8.35;;
53411;SDS011;39307;52.870;13.660;2023-04-24T01:10:11;10.80;;;8.55;;
53411;SDS011;39307;52.870;13.660;2023-04-24T01:12:38;11.20;;;8.98;;
53411;SDS011;39307;52.870;13.660;2023-04-24T01:15:04;10.80;;;8.30;;
53411;SDS011;39307;52.870;13.660;2023-04-24T01:17:31;11.50;;;8.50;;
53411;SDS011;39307;52.870;13.660;2023-04-24T01:19:58;10.75;;;8.43;;
53411;SDS011;39307;52.870;13.660;2023-04-24T01:22:27;10.50;;;8.60;;
53411;SDS011;39307;52.870;13.660;2023-04-24T01:24:54;10.00;;;8.43;;
53411;SDS011;39307;52.870;13.660;2023-04-24T01:27:20;10.05;;;8.18;;
53411;SDS011;39307;52.870;13.660;2023-04-24T01:29:46;12.73;;;9.68;;
53411;SDS011;39307;52.870;13.660;2023-04-24T01:32:13;12.70;;;9.52;;
53411;SDS011;39307;52.870;13.660;2023-04-24T01:34:39;12.68;;;10.13;;
53411;SDS011;39307;52.870;13.660;2023-04-24T01:37:06;13.95;;;11.05;;
53411;SDS011;39307;52.870;13.660;2023-04-24T01:39:32;12.93;;;9.60;;
53411;SDS011;39307;52.870;13.660;2023-04-24T01:41:59;13.10;;;10.10;;
53411;SDS011;39307;52.870;13.660;2023-04-24T01:44:25;13.05;;;10.63;;
53411;SDS011;39307;52.870;13.660;2023-04-24T01:46:52;14.68;;;10.75;;
53411;SDS011;39307;52.870;13.660;2023-04-24T01:49:18;14.35;;;11.68;;
53411;SDS011;39307;52.870;13.660;2023-04-24T01:51:45;14.43;;;11.75;;
53411;SDS011;39307;52.870;13.660;2023-04-24T01:54:12;14.32;;;12.32;;
53411;SDS011;39307;52.870;13.660;2023-04-24T01:56:41;17.42;;;13.30;;
53411;SDS011;39307;52.870;13.660;2023-04-24T01:59:11;17.05;;;14.02;;
53411;SDS011;39307;52.870;13.660;2023-04-24T02:01:38;14.73;;;12.60;;
53411;SDS011;39307;52.870;13.660;2023-04-24T02:04:05;15.52;;;12.63;;
53411;SDS011;39307;52.870;13.660;2023-04-24T02:06:31;17.55;;;14.80;;
53411;SDS011;39307;52.870;13.660;2023-04-24T02:08:58;19.20;;;15.82;;
53411;SDS011;39307;52.870;13.660;2023-04-24T02:11:24;18.27;;;15.82;;
53411;SDS011;39307;52.870;13.660;2023-04-24T02:13:51;19.80;;;16.73;;
53411;SDS011;39307;52.870;13.660;2023-04-24T02:16:17;19.75;;;16.52;;
53411;SDS011;39307;52.870;13.660;2023-04-24T02:18:44;19.45;;;16.48;;
53411;SDS011;39307;52.870;13.660;2023-04-24T02:21:10;20.67;;;17.67;;
53411;SDS011;39307;52.870;13.660;2023-04-24T02:23:36;18.90;;;16.60;;
53411;SDS011;39307;52.870;13.660;2023-04-24T02:26:02;21.33;;;17.48;;
53411;SDS011;39307;52.870;13.660;2023-04-24T02:28:29;19.95;;;17.25;;
53411;SDS011;39307;52.870;13.660;2023-04-24T02:30:55;19.63;;;16.30;;
53411;SDS011;39307;52.870;13.660;2023-04-24T02:33:21;18.63;;;15.97;;
53411;SDS011;39307;52.870;13.660;2023-04-24T02:35:47;18.47;;;16.13;;
53411;SDS011;39307;52.870;13.660;2023-04-24T02:38:13;20.10;;;16.02;;
53411;SDS011;39307;52.870;13.660;2023-04-24T02:40:40;18.02;;;15.52;;
53411;SDS011;39307;52.870;13.660;2023-04-24T02:43:06;18.10;;;15.73;;
53411;SDS011;39307;52.870;13.660;2023-04-24T02:45:32;17.80;;;14.95;;
53411;SDS011;39307;52.870;13.660;2023-04-24T02:47:58;19.33;;;16.05;;
53411;SDS011;39307;52.870;13.660;2023-04-24T02:50:24;17.20;;;14.30;;
53411;SDS011;39307;52.870;13.660;2023-04-24T02:52:50;17.73;;;14.95;;
53411;SDS011;39307;52.870;13.660;2023-04-24T02:55:17;17.92;;;15.43;;
53411;SDS011;39307;52.870;13.660;2023-04-24T02:57:43;17.85;;;15.07;;
53411;SDS011;39307;52.870;13.660;2023-04-24T03:00:09;17.48;;;14.73;;
53411;SDS011;39307;52.870;13.660;2023-04-24T03:02:36;18.35;;;14.73;;
53411;SDS011;39307;52.870;13.660;2023-04-24T03:05:02;19.23;;;15.73;;
53411;SDS011;39307;52.870;13.660;2023-04-24T03:07:29;16.50;;;14.67;;
53411;SDS011;39307;52.870;13.660;2023-04-24T03:09:55;18.08;;;14.75;;
53411;SDS011;39307;52.870;13.660;2023-04-24T03:12:21;19.45;;;15.00;;
53411;SDS011;39307;52.870;13.660;2023-04-24T03:14:47;17.58;;;14.75;;
53411;SDS011;39307;52.870;13.660;2023-04-24T03:17:13;17.65;;;15.05;;
53411;SDS011;39307;52.870;13.660;2023-04-24T03:19:40;18.98;;;15.60;;
53411;SDS011;39307;52.870;13.660;2023-04-24T03:22:06;18.00;;;14.65;;
53411;SDS011;39307;52.870;13.660;2023-04-24T03:24:32;17.55;;;14.20;;
53411;SDS011;39307;52.870;13.660;2023-04-24T03:26:58;17.20;;;14.88;;
53411;SDS011;39307;52.870;13.660;2023-04-24T03:29:24;18.47;;;15.77;;
53411;SDS011;39307;52.870;13.660;2023-04-24T03:31:51;18.25;;;15.82;;
53411;SDS011;39307;52.870;13.660;2023-04-24T03:34:17;18.85;;;16.20;;
53411;SDS011;39307;52.870;13.660;2023-04-24T03:36:43;16.52;;;14.73;;
53411;SDS011;39307;52.870;13.660;2023-04-24T03:39:09;18.55;;;14.75;;
53411;SDS011;39307;52.870;13.660;2023-04-24T03:41:35;17.38;;;14.70;;
53411;SDS011;39307;52.870;13.660;2023-04-24T03:44:01;17.50;;;14.88;;
53411;SDS011;39307;52.870;13.660;2023-04-24T03:46:28;18.08;;;14.93;;
53411;SDS011;39307;52.870;13.660;2023-04-24T03:48:55;17.02;;;14.25;;
53411;SDS011;39307;52.870;13.660;2023-04-24T03:51:21;15.82;;;13.80;;
53411;SDS011;39307;52.870;13.660;2023-04-24T03:53:47;15.93;;;14.23;;
53411;SDS011;39307;52.870;13.660;2023-04-24T03:56:14;17.75;;;14.77;;
53411;SDS011;39307;52.870;13.660;2023-04-24T03:58:40;17.92;;;14.30;;
53411;SDS011;39307;52.870;13.660;2023-04-24T04:01:06;18.38;;;14.93;;
53411;SDS011;39307;52.870;13.660;2023-04-24T04:03:33;18.40;;;15.02;;
53411;SDS011;39307;52.870;13.660;2023-04-24T04:05:59;17.20;;;14.70;;
53411;SDS011;39307;52.870;13.660;2023-04-24T04:08:25;16.55;;;13.68;;
53411;SDS011;39307;52.870;13.660;2023-04-24T04:10:52;16.52;;;14.55;;
53411;SDS011;39307;52.870;13.660;2023-04-24T04:13:18;18.35;;;14.38;;
53411;SDS011;39307;52.870;13.660;2023-04-24T04:15:44;16.08;;;13.65;;
53411;SDS011;39307;52.870;13.660;2023-04-24T04:18:10;17.25;;;13.85;;
53411;SDS011;39307;52.870;13.660;2023-04-24T04:20:36;15.63;;;13.57;;
53411;SDS011;39307;52.870;13.660;2023-04-24T04:23:03;16.30;;;13.97;;
53411;SDS011;39307;52.870;13.660;2023-04-24T04:25:29;15.50;;;13.52;;
53411;SDS011;39307;52.870;13.660;2023-04-24T04:27:55;15.23;;;12.93;;
53411;SDS011;39307;52.870;13.660;2023-04-24T04:30:21;16.45;;;12.75;;
53411;SDS011;39307;52.870;13.660;2023-04-24T04:32:48;15.07;;;12.38;;
53411;SDS011;39307;52.870;13.660;2023-04-24T04:35:14;15.65;;;12.70;;
53411;SDS011;39307;52.870;13.660;2023-04-24T04:37:41;14.75;;;12.70;;
53411;SDS011;39307;52.870;13.660;2023-04-24T04:40:07;14.15;;;12.15;;
53411;SDS011;39307;52.870;13.660;2023-04-24T04:42:34;14.45;;;11.95;;
53411;SDS011;39307;52.870;13.660;2023-04-24T04:45:00;15.55;;;12.18;;
53411;SDS011;39307;52.870;13.660;2023-04-24T04:47:26;14.10;;;12.10;;
53411;SDS011;39307;52.870;13.660;2023-04-24T04:49:52;15.82;;;12.23;;
53411;SDS011;39307;52.870;13.660;2023-04-24T04:52:19;14.23;;;12.30;;
53411;SDS011;39307;52.870;13.660;2023-04-24T04:54:45;14.75;;;12.18;;
53411;SDS011;39307;52.870;13.660;2023-04-24T04:57:11;14.75;;;12.20;;
53411;SDS011;39307;52.870;13.660;2023-04-24T04:59:38;15.13;;;12.05;;
53411;SDS011;39307;52.870;13.660;2023-04-24T05:02:04;14.40;;;11.98;;
53411;SDS011;39307;52.870;13.660;2023-04-24T05:04:30;15.02;;;12.15;;
53411;SDS011;39307;52.870;13.660;2023-04-24T05:06:56;13.15;;;11.57;;
53411;SDS011;39307;52.870;13.660;2023-04-24T05:09:22;15.40;;;11.20;;
53411;SDS011;39307;52.870;13.660;2023-04-24T05:11:49;14.20;;;11.33;;
53411;SDS011;39307;52.870;13.660;2023-04-24T05:14:15;14.20;;;11.17;;
53411;SDS011;39307;52.870;13.660;2023-04-24T05:16:41;13.50;;;11.37;;
53411;SDS011;39307;52.870;13.660;2023-04-24T05:19:07;14.63;;;11.15;;
53411;SDS011;39307;52.870;13.660;2023-04-24T05:21:33;12.35;;;10.73;;
53411;SDS011;39307;52.870;13.660;2023-04-24T05:23:59;13.00;;;11.15;;
53411;SDS011;39307;52.870;13.660;2023-04-24T05:26:26;15.52;;;12.85;;
53411;SDS011;39307;52.870;13.660;2023-04-24T05:28:52;13.27;;;11.65;;
53411;SDS011;39307;52.870;13.660;2023-04-24T05:31:18;15.07;;;12.10;;
53411;SDS011;39307;52.870;13.660;2023-04-24T05:33:44;12.82;;;11.23;;
53411;SDS011;39307;52.870;13.660;2023-04-24T05:36:10;13.27;;;11.68;;
53411;SDS011;39307;52.870;13.660;2023-04-24T05:38:36;13.27;;;10.95;;
53411;SDS011;39307;52.870;13.660;2023-04-24T05:41:02;13.88;;;11.52;;
53411;SDS011;39307;52.870;13.660;2023-04-24T05:43:29;13.88;;;11.98;;
53411;SDS011;39307;52.870;13.660;2023-04-24T05:45:55;14.75;;;13.18;;
53411;SDS011;39307;52.870;13.660;2023-04-24T05:48:21;16.80;;;14.90;;
53411;SDS011;39307;52.870;13.660;2023-04-24T05:50:47;15.27;;;12.88;;
53411;SDS011;39307;52.870;13.660;2023-04-24T05:53:13;13.85;;;10.43;;
53411;SDS011;39307;52.870;13.660;2023-04-24T05:55:40;12.45;;;10.50;;
53411;SDS011;39307;52.870;13.660;2023-04-24T05:58:06;12.68;;;10.35;;
53411;SDS011;39307;52.870;13.660;2023-04-24T06:00:32;11.15;;;9.25;;
53411;SDS011;39307;52.870;13.660;2023-04-24T06:02:59;12.27;;;10.23;;
53411;SDS011;39307;52.870;13.660;2023-04-24T06:05:26;14.38;;;11.60;;
53411;SDS011;39307;52.870;13.660;2023-04-24T06:07:52;17.60;;;14.67;;
53411;SDS011;39307;52.870;13.660;2023-04-24T06:10:18;41.38;;;33.97;;
53411;SDS011;39307;52.870;13.660;2023-04-24T06:12:44;21.63;;;18.50;;
53411;SDS011;39307;52.870;13.660;2023-04-24T06:15:11;13.63;;;11.65;;
53411;SDS011;39307;52.870;13.660;2023-04-24T06:17:37;13.20;;;10.13;;
53411;SDS011;39307;52.870;13.660;2023-04-24T06:20:03;12.13;;;9.98;;
53411;SDS011;39307;52.870;13.660;2023-04-24T06:22:30;10.52;;;9.00;;
53411;SDS011;39307;52.870;13.660;2023-04-24T06:24:56;10.55;;;8.95;;
53411;SDS011;39307;52.870;13.660;2023-04-24T06:27:22;12.02;;;9.57;;
53411;SDS011;39307;52.870;13.660;2023-04-24T06:29:49;10.10;;;8.07;;
53411;SDS011;39307;52.870;13.660;2023-04-24T06:32:15;9.65;;;7.68;;
53411;SDS011;39307;52.870;13.660;2023-04-24T06:34:41;9.25;;;7.25;;
53411;SDS011;39307;52.870;13.660;2023-04-24T06:37:07;8.73;;;7.05;;
53411;SDS011;39307;52.870;13.660;2023-04-24T06:39:33;10.35;;;7.10;;
53411;SDS011;39307;52.870;13.660;2023-04-24T06:42:00;9.52;;;6.85;;
53411;SDS011;39307;52.870;13.660;2023-04-24T06:44:26;9.05;;;6.32;;
53411;SDS011;39307;52.870;13.660;2023-04-24T06:46:52;7.40;;;5.88;;
53411;SDS011;39307;52.870;13.660;2023-04-24T06:49:18;7.30;;;5.13;;
53411;SDS011;39307;52.870;13.660;2023-04-24T06:51:44;8.02;;;5.15;;
53411;SDS011;39307;52.870;13.660;2023-04-24T06:54:11;6.15;;;4.35;;
53411;SDS011;39307;52.870;13.660;2023-04-24T06:56:37;7.17;;;4.37;;
53411;SDS011;39307;52.870;13.660;2023-04-24T06:59:03;7.18;;;4.38;;
53411;SDS011;39307;52.870;13.660;2023-04-24T07:01:30;6.70;;;3.85;;
53411;SDS011;39307;52.870;13.660;2023-04-24T07:03:56;5.90;;;3.85;;
53411;SDS011;39307;52.870;13.660;2023-04-24T07:06:22;5.70;;;3.90;;
53411;SDS011;39307;52.870;13.660;2023-04-24T07:08:48;8.80;;;3.97;;
53411;SDS011;39307;52.870;13.660;2023-04-24T07:11:14;6.65;;;3.60;;
53411;SDS011;39307;52.870;13.660;2023-04-24T07:13:41;6.95;;;3.40;;
53411;SDS011;39307;52.870;13.660;2023-04-24T07:16:07;7.47;;;3.03;;
53411;SDS011;39307;52.870;13.660;2023-04-24T07:18:34;6.25;;;3.10;;
53411;SDS011;39307;52.870;13.660;2023-04-24T07:21:00;5.88;;;2.75;;
53411;SDS011;39307;52.870;13.660;2023-04-24T07:23:28;5.97;;;3.05;;
53411;SDS011;39307;52.870;13.660;2023-04-24T07:25:54;4.85;;;2.72;;
53411;SDS011;39307;52.870;13.660;2023-04-24T07:28:20;5.53;;;3.00;;
53411;SDS011;39307;52.870;13.660;2023-04-24T07:30:46;5.32;;;2.90;;
53411;SDS011;39307;52.870;13.660;2023-04-24T07:33:13;5.97;;;2.90;;
53411;SDS011;39307;52.870;13.660;2023-04-24T07:35:39;4.63;;;2.55;;
53411;SDS011;39307;52.870;13.660;2023-04-24T07:38:05;5.28;;;2.85;;
53411;SDS011;39307;52.870;13.660;2023-04-24T07:40:31;4.28;;;2.65;;
53411;SDS011;39307;52.870;13.660;2023-04-24T07:42:58;4.97;;;2.30;;
53411;SDS011;39307;52.870;13.660;2023-04-24T07:45:24;4.30;;;2.28;;
53411;SDS011;39307;52.870;13.660;2023-04-24T07:47:51;3.93;;;1.90;;
53411;SDS011;39307;52.870;13.660;2023-04-24T07:50:17;4.60;;;2.10;;
53411;SDS011;39307;52.870;13.660;2023-04-24T07:52:43;6.80;;;1.80;;
53411;SDS011;39307;52.870;13.660;2023-04-24T07:55:09;4.10;;;2.10;;
53411;SDS011;39307;52.870;13.660;2023-04-24T07:57:36;4.05;;;1.70;;
53411;SDS011;39307;52.870;13.660;2023-04-24T08:00:03;2.67;;;1.70;;
53411;SDS011;39307;52.870;13.660;2023-04-24T08:02:29;3.05;;;1.75;;
53411;SDS011;39307;52.870;13.660;2023-04-24T08:04:56;3.30;;;1.70;;
53411;SDS011;39307;52.870;13.660;2023-04-24T08:07:22;3.90;;;1.60;;
53411;SDS011;39307;52.870;13.660;2023-04-24T08:09:49;4.20;;;1.70;;
53411;SDS011;39307;52.870;13.660;2023-04-24T08:12:15;2.85;;;1.60;;
53411;SDS011;39307;52.870;13.660;2023-04-24T08:14:41;3.70;;;1.50;;
53411;SDS011;39307;52.870;13.660;2023-04-24T08:17:08;4.00;;;1.43;;
53411;SDS011;39307;52.870;13.660;2023-04-24T08:19:34;3.20;;;1.40;;
53411;SDS011;39307;52.870;13.660;2023-04-24T08:22:00;3.77;;;1.30;;
53411;SDS011;39307;52.870;13.660;2023-04-24T08:24:26;4.20;;;1.50;;
53411;SDS011;39307;52.870;13.660;2023-04-24T08:26:52;4.23;;;1.50;;
53411;SDS011;39307;52.870;13.660;2023-04-24T08:29:19;2.20;;;1.30;;
53411;SDS011;39307;52.870;13.660;2023-04-24T08:31:46;4.13;;;1.80;;
53411;SDS011;39307;52.870;13.660;2023-04-24T08:34:13;3.22;;;1.10;;
53411;SDS011;39307;52.870;13.660;2023-04-24T08:36:39;3.75;;;1.20;;
53411;SDS011;39307;52.870;13.660;2023-04-24T08:39:05;2.00;;;1.00;;
53411;SDS011;39307;52.870;13.660;2023-04-24T08:41:31;3.90;;;1.00;;
53411;SDS011;39307;52.870;13.660;2023-04-24T08:44:00;1.80;;;0.77;;
53411;SDS011;39307;52.870;13.660;2023-04-24T08:46:27;3.70;;;1.00;;
53411;SDS011;39307;52.870;13.660;2023-04-24T08:48:56;1.55;;;0.70;;
53411;SDS011;39307;52.870;13.660;2023-04-24T08:51:23;2.83;;;0.90;;
53411;SDS011;39307;52.870;13.660;2023-04-24T08:53:51;2.17;;;0.85;;
53411;SDS011;39307;52.870;13.660;2023-04-24T08:56:20;1.88;;;0.68;;
53411;SDS011;39307;52.870;13.660;2023-04-24T08:58:48;2.22;;;0.73;;
53411;SDS011;39307;52.870;13.660;2023-04-24T09:01:18;1.23;;;0.60;;
53411;SDS011;39307;52.870;13.660;2023-04-24T09:03:46;1.80;;;0.60;;
53411;SDS011;39307;52.870;13.660;2023-04-24T09:06:16;1.60;;;0.60;;
53411;SDS011;39307;52.870;13.660;2023-04-24T09:08:45;0.90;;;0.40;;
53411;SDS011;39307;52.870;13.660;2023-04-24T09:11:11;2.00;;;0.60;;
53411;SDS011;39307;52.870;13.660;2023-04-24T09:13:38;0.80;;;0.38;;
53411;SDS011;39307;52.870;13.660;2023-04-24T09:16:04;1.70;;;0.50;;
53411;SDS011;39307;52.870;13.660;2023-04-24T09:18:31;2.15;;;0.50;;
53411;SDS011;39307;52.870;13.660;2023-04-24T09:21:01;2.33;;;0.50;;
53411;SDS011;39307;52.870;13.660;2023-04-24T09:23:29;1.00;;;0.40;;
53411;SDS011;39307;52.870;13.660;2023-04-24T09:25:57;1.67;;;0.52;;
53411;SDS011;39307;52.870;13.660;2023-04-24T09:28:37;1.83;;;0.60;;
53411;SDS011;39307;52.870;13.660;2023-04-24T09:31:14;1.40;;;0.50;;
53411;SDS011;39307;52.870;13.660;2023-04-24T09:33:55;1.27;;;0.53;;
53411;SDS011;39307;52.870;13.660;2023-04-24T09:36:29;1.63;;;0.60;;
53411;SDS011;39307;52.870;13.660;2023-04-24T09:39:00;2.60;;;0.50;;
53411;SDS011;39307;52.870;13.660;2023-04-24T09:41:27;1.50;;;0.50;;
53411;SDS011;39307;52.870;13.660;2023-04-24T09:43:54;1.38;;;0.50;;
53411;SDS011;39307;52.870;13.660;2023-04-24T09:46:21;3.53;;;0.60;;
53411;SDS011;39307;52.870;13.660;2023-04-24T09:48:55;1.88;;;0.50;;
53411;SDS011;39307;52.870;13.660;2023-04-24T09:51:32;2.50;;;0.60;;
53411;SDS011;39307;52.870;13.660;2023-04-24T09:54:00;1.45;;;0.52;;
53411;SDS011;39307;52.870;13.660;2023-04-24T09:56:26;0.90;;;0.47;;
53411;SDS011;39307;52.870;13.660;2023-04-24T09:58:52;1.98;;;0.57;;
53411;SDS011;39307;52.870;13.660;2023-04-24T10:01:31;3.30;;;0.70;;
53411;SDS011;39307;52.870;13.660;2023-04-24T10:03:58;1.50;;;0.50;;
53411;SDS011;39307;52.870;13.660;2023-04-24T10:06:33;1.25;;;0.60;;
53411;SDS011;39307;52.870;13.660;2023-04-24T10:09:00;2.93;;;0.80;;
53411;SDS011;39307;52.870;13.660;2023-04-24T10:11:27;1.67;;;0.40;;
53411;SDS011;39307;52.870;13.660;2023-04-24T10:13:53;3.20;;;0.60;;
53411;SDS011;39307;52.870;13.660;2023-04-24T10:16:20;1.60;;;0.33;;
53411;SDS011;39307;52.870;13.660;2023-04-24T10:18:47;0.90;;;0.30;;
53411;SDS011;39307;52.870;13.660;2023-04-24T10:21:17;1.88;;;0.40;;
53411;SDS011;39307;52.870;13.660;2023-04-24T10:23:43;2.90;;;0.70;;
53411;SDS011;39307;52.870;13.660;2023-04-24T10:26:10;2.13;;;0.40;;
53411;SDS011;39307;52.870;13.660;2023-04-24T10:28:38;2.17;;;0.52;;
53411;SDS011;39307;52.870;13.660;2023-04-24T10:31:07;1.02;;;0.47;;
53411;SDS011;39307;52.870;13.660;2023-04-24T10:33:35;1.20;;;0.45;;
53411;SDS011;39307;52.870;13.660;2023-04-24T10:36:01;1.20;;;0.50;;
53411;SDS011;39307;52.870;13.660;2023-04-24T10:38:28;2.38;;;0.47;;
53411;SDS011;39307;52.870;13.660;2023-04-24T10:41:11;1.55;;;0.50;;
53411;SDS011;39307;52.870;13.660;2023-04-24T10:43:39;0.95;;;0.38;;
53411;SDS011;39307;52.870;13.660;2023-04-24T10:46:06;1.20;;;0.55;;
53411;SDS011;39307;52.870;13.660;2023-04-24T10:48:33;0.90;;;0.33;;
53411;SDS011;39307;52.870;13.660;2023-04-24T10:51:00;1.35;;;0.38;;
53411;SDS011;39307;52.870;13.660;2023-04-24T10:53:28;1.33;;;0.50;;
53411;SDS011;39307;52.870;13.660;2023-04-24T10:55:59;1.23;;;0.50;;
53411;SDS011;39307;52.870;13.660;2023-04-24T10:58:40;1.40;;;0.40;;
53411;SDS011;39307;52.870;13.660;2023-04-24T11:01:07;2.00;;;0.50;;
53411;SDS011;39307;52.870;13.660;2023-04-24T11:03:33;1.17;;;0.47;;
53411;SDS011;39307;52.870;13.660;2023-04-24T11:06:07;1.60;;;0.50;;
53411;SDS011;39307;52.870;13.660;2023-04-24T11:08:43;1.70;;;0.60;;
53411;SDS011;39307;52.870;13.660;2023-04-24T11:16:26;1.60;;;0.50;;
53411;SDS011;39307;52.870;13.660;2023-04-24T11:21:42;6.17;;;2.77;;
53411;SDS011;39307;52.870;13.660;2023-04-24T11:24:27;3.60;;;1.50;;
53411;SDS011;39307;52.870;13.660;2023-04-24T11:29:38;17.60;;;12.57;;
53411;SDS011;39307;52.870;13.660;2023-04-24T11:32:22;3.27;;;0.83;;
53411;SDS011;39307;52.870;13.660;2023-04-24T11:35:02;1.45;;;0.52;;
53411;SDS011;39307;52.870;13.660;2023-04-24T11:37:36;1.48;;;0.45;;
53411;SDS011;39307;52.870;13.660;2023-04-24T11:40:03;3.55;;;2.28;;
53411;SDS011;39307;52.870;13.660;2023-04-24T11:42:37;1.00;;;0.57;;
53411;SDS011;39307;52.870;13.660;2023-04-24T11:45:08;3.85;;;1.08;;
53411;SDS011;39307;52.870;13.660;2023-04-24T11:47:43;2.55;;;0.80;;
53411;SDS011;39307;52.870;13.660;2023-04-24T11:50:14;2.70;;;0.80;;
53411;SDS011;39307;52.870;13.660;2023-04-24T11:52:41;4.07;;;0.75;;
53411;SDS011;39307;52.870;13.660;2023-04-24T11:57:47;2.28;;;0.60;;
53411;SDS011;39307;52.870;13.660;2023-04-24T12:00:18;1.35;;;0.70;;
53411;SDS011;39307;52.870;13.660;2023-04-24T12:02:45;3.53;;;1.60;;
53411;SDS011;39307;52.870;13.660;2023-04-24T12:05:21;3.90;;;1.50;;
53411;SDS011;39307;52.870;13.660;2023-04-24T12:07:52;4.17;;;1.47;;
53411;SDS011;39307;52.870;13.660;2023-04-24T12:10:20;1.60;;;0.60;;
53411;SDS011;39307;52.870;13.660;2023-04-24T12:12:47;1.43;;;0.73;;
53411;SDS011;39307;52.870;13.660;2023-04-24T12:15:15;1.57;;;0.77;;
53411;SDS011;39307;52.870;13.660;2023-04-24T12:17:43;3.58;;;0.70;;
53411;SDS011;39307;52.870;13.660;2023-04-24T12:20:10;3.15;;;0.90;;
53411;SDS011;39307;52.870;13.660;2023-04-24T12:22:46;1.35;;;0.75;;
53411;SDS011;39307;52.870;13.660;2023-04-24T12:25:15;2.80;;;1.17;;
53411;SDS011;39307;52.870;13.660;2023-04-24T12:27:43;5.25;;;2.25;;
53411;SDS011;39307;52.870;13.660;2023-04-24T12:30:11;2.60;;;1.30;;
53411;SDS011;39307;52.870;13.660;2023-04-24T12:32:42;3.38;;;0.70;;
53411;SDS011;39307;52.870;13.660;2023-04-24T12:35:13;1.70;;;0.50;;
53411;SDS011;39307;52.870;13.660;2023-04-24T12:37:45;1.63;;;0.60;;
53411;SDS011;39307;52.870;13.660;2023-04-24T12:40:11;1.80;;;0.50;;
53411;SDS011;39307;52.870;13.660;2023-04-24T12:42:42;2.75;;;0.65;;
53411;SDS011;39307;52.870;13.660;2023-04-24T12:45:09;3.60;;;0.70;;
53411;SDS011;39307;52.870;13.660;2023-04-24T12:47:36;1.00;;;0.50;;
53411;SDS011;39307;52.870;13.660;2023-04-24T12:50:02;4.50;;;1.10;;
53411;SDS011;39307;52.870;13.660;2023-04-24T12:52:29;1.65;;;0.60;;
53411;SDS011;39307;52.870;13.660;2023-04-24T12:54:57;1.43;;;0.50;;
53411;SDS011;39307;52.870;13.660;2023-04-24T12:57:24;2.50;;;0.77;;
53411;SDS011;39307;52.870;13.660;2023-04-24T12:59:53;1.80;;;0.50;;
53411;SDS011;39307;52.870;13.660;2023-04-24T13:02:20;1.85;;;0.50;;
53411;SDS011;39307;52.870;13.660;2023-04-24T13:04:47;1.93;;;0.37;;
53411;SDS011;39307;52.870;13.660;2023-04-24T13:07:14;2.10;;;0.50;;
53411;SDS011;39307;52.870;13.660;2023-04-24T13:09:41;2.92;;;0.90;;
53411;SDS011;39307;52.870;13.660;2023-04-24T13:12:08;2.00;;;0.50;;
53411;SDS011;39307;52.870;13.660;2023-04-24T13:14:35;2.13;;;0.60;;
53411;SDS011;39307;52.870;13.660;2023-04-24T13:17:02;2.17;;;0.50;;
53411;SDS011;39307;52.870;13.660;2023-04-24T13:19:29;1.92;;;0.47;;
53411;SDS011;39307;52.870;13.660;2023-04-24T13:22:01;1.70;;;0.47;;
53411;SDS011;39307;52.870;13.660;2023-04-24T13:24:27;2.25;;;0.85;;
53411;SDS011;39307;52.870;13.660;2023-04-24T13:26:54;0.88;;;0.45;;
53411;SDS011;39307;52.870;13.660;2023-04-24T13:29:20;2.40;;;0.50;;
53411;SDS011;39307;52.870;13.660;2023-04-24T13:31:46;2.53;;;0.40;;
53411;SDS011;39307;52.870;13.660;2023-04-24T13:34:13;0.70;;;0.33;;
53411;SDS011;39307;52.870;13.660;2023-04-24T13:36:39;1.25;;;0.40;;
53411;SDS011;39307;52.870;13.660;2023-04-24T13:39:06;1.30;;;0.50;;
53411;SDS011;39307;52.870;13.660;2023-04-24T13:41:32;2.10;;;0.70;;
53411;SDS011;39307;52.870;13.660;2023-04-24T13:43:59;5.78;;;1.10;;
53411;SDS011;39307;52.870;13.660;2023-04-24T13:46:25;3.63;;;1.00;;
53411;SDS011;39307;52.870;13.660;2023-04-24T13:48:51;4.43;;;1.00;;
53411;SDS011;39307;52.870;13.660;2023-04-24T13:51:18;3.10;;;0.70;;
53411;SDS011;39307;52.870;13.660;2023-04-24T13:53:44;1.90;;;0.60;;
53411;SDS011;39307;52.870;13.660;2023-04-24T13:56:10;2.33;;;0.85;;
53411;SDS011;39307;52.870;13.660;2023-04-24T13:58:36;2.43;;;0.93;;
53411;SDS011;39307;52.870;13.660;2023-04-24T14:01:03;2.65;;;0.95;;
53411;SDS011;39307;52.870;13.660;2023-04-24T14:03:30;3.60;;;0.80;;
53411;SDS011;39307;52.870;13.660;2023-04-24T14:05:56;2.72;;;0.80;;
53411;SDS011;39307;52.870;13.660;2023-04-24T14:08:22;3.95;;;1.00;;
53411;SDS011;39307;52.870;13.660;2023-04-24T14:10:49;3.95;;;1.10;;
53411;SDS011;39307;52.870;13.660;2023-04-24T14:13:16;3.70;;;0.90;;
53411;SDS011;39307;52.870;13.660;2023-04-24T14:15:42;2.38;;;1.02;;
53411;SDS011;39307;52.870;13.660;2023-04-24T14:18:08;2.42;;;0.90;;
53411;SDS011;39307;52.870;13.660;2023-04-24T14:20:35;4.45;;;1.02;;
53411;SDS011;39307;52.870;13.660;2023-04-24T14:23:01;2.20;;;0.80;;
53411;SDS011;39307;52.870;13.660;2023-04-24T14:25:27;5.13;;;1.07;;
53411;SDS011;39307;52.870;13.660;2023-04-24T14:27:53;3.30;;;1.00;;
53411;SDS011;39307;52.870;13.660;2023-04-24T14:30:19;2.27;;;0.93;;
53411;SDS011;39307;52.870;13.660;2023-04-24T14:32:45;2.50;;;0.93;;
53411;SDS011;39307;52.870;13.660;2023-04-24T14:35:12;2.73;;;1.10;;
53411;SDS011;39307;52.870;13.660;2023-04-24T14:37:38;1.87;;;1.00;;